Time;durP1;ratioP1;P1;durP2;ratioP2;P2;SDS_P1;SDS_P2;PMS_P1;PMS_P2;Temp;Humidity;BMP_temperature;BMP_pressure;BME280_temperature;BME280_humidity;BME280_pressure;Samples;Min_cycle;Max_cycle;Signal;HPM_P1;HPM_P2
2022/06/07 00:01:39;;;;;;;15.98;7.40;;;12.10;99.90;;;;;;5066194;28;20109;-73
2022/06/07 00:04:06;;;;;;;15.30;7.85;;;11.90;99.90;;;;;;5065585;28;20087;-73
2022/06/07 00:06:31;;;;;;;15.48;6.70;;;11.90;99.90;;;;;;5064781;28;20037;-73
2022/06/07 00:08:57;;;;;;;14.80;8.77;;;11.90;99.90;;;;;;5066233;28;20035;-73
2022/06/07 00:11:23;;;;;;;15.45;7.43;;;11.90;99.90;;;;;;5063561;28;20093;-73
2022/06/07 00:13:49;;;;;;;14.73;7.13;;;11.90;99.90;;;;;;5062739;28;20045;-73
2022/06/07 00:16:17;;;;;;;11.85;7.70;;;11.90;99.90;;;;;;5064556;28;20156;-72
2022/06/07 00:18:43;;;;;;;13.13;7.28;;;12.20;99.90;;;;;;5063466;28;20093;-73
2022/06/07 00:21:09;;;;;;;14.05;6.93;;;11.90;99.90;;;;;;5065102;28;20489;-71
2022/06/07 00:23:35;;;;;;;15.75;7.50;;;12.00;99.90;;;;;;5045541;28;20036;-72
2022/06/07 00:26:02;;;;;;;16.35;8.25;;;12.10;99.90;;;;;;5065760;28;20071;-73
2022/06/07 00:28:29;;;;;;;17.17;7.57;;;12.00;99.90;;;;;;5063964;28;20044;-72
2022/06/07 00:30:55;;;;;;;15.48;7.22;;;11.90;99.90;;;;;;5064799;28;20445;-72
2022/06/07 00:33:22;;;;;;;19.48;8.30;;;11.90;99.90;;;;;;5049291;28;20462;-73
2022/06/07 00:35:49;;;;;;;15.00;7.25;;;11.90;99.90;;;;;;5064911;28;20071;-73
2022/06/07 00:38:15;;;;;;;18.20;7.45;;;11.90;99.90;;;;;;5043244;28;20288;-73
2022/06/07 00:40:42;;;;;;;18.73;8.20;;;12.00;99.90;;;;;;5063629;28;20049;-72
2022/06/07 00:43:09;;;;;;;15.80;8.65;;;12.00;99.90;;;;;;5045410;28;20048;-72
2022/06/07 00:45:36;;;;;;;18.80;8.45;;;12.00;99.90;;;;;;5064386;28;20685;-73
2022/06/07 00:48:02;;;;;;;13.90;8.48;;;12.00;99.90;;;;;;5066934;28;20107;-72
2022/06/07 00:50:45;;;;;;;16.45;8.65;;;12.00;99.90;;;;;;5066421;28;20040;-72
2022/06/07 00:53:28;;;;;;;16.45;8.65;;;12.00;99.90;;;;;;5072068;28;20101;-72
2022/06/07 00:55:54;;;;;;;21.95;10.27;;;12.00;99.90;;;;;;5064948;28;20048;-71
2022/06/07 00:58:22;;;;;;;15.80;9.38;;;12.00;99.90;;;;;;5066392;28;20047;-72
2022/06/07 01:00:49;;;;;;;19.02;9.50;;;12.00;99.90;;;;;;5066854;28;20044;-72
2022/06/07 01:03:15;;;;;;;13.43;8.57;;;12.00;99.90;;;;;;5073383;28;20135;-73
2022/06/07 01:05:41;;;;;;;19.15;8.95;;;12.00;99.90;;;;;;5069940;28;20560;-73
2022/06/07 01:10:53;;;;;;;13.60;7.35;;;12.00;99.90;;;;;;5068439;28;20408;-72
2022/06/07 01:13:22;;;;;;;16.08;8.82;;;12.00;99.90;;;;;;5077027;28;20477;-73
2022/06/07 01:15:48;;;;;;;16.33;8.38;;;11.90;99.90;;;;;;5070009;28;20044;-73
2022/06/07 01:18:16;;;;;;;21.52;9.07;;;12.10;99.90;;;;;;5069872;28;20101;-72
2022/06/07 01:20:41;;;;;;;19.27;8.45;;;12.10;99.90;;;;;;5071642;28;20063;-72
2022/06/07 01:23:07;;;;;;;16.98;8.18;;;12.00;99.90;;;;;;5053311;28;20079;-73
2022/06/07 01:25:36;;;;;;;19.10;8.05;;;12.10;99.90;;;;;;5089313;28;20468;-73
2022/06/07 01:28:02;;;;;;;17.17;8.25;;;12.10;99.90;;;;;;5051993;28;20059;-72
2022/06/07 01:30:28;;;;;;;16.90;8.75;;;12.10;99.90;;;;;;5070464;28;20051;-72
2022/06/07 01:32:55;;;;;;;20.15;8.55;;;12.10;99.90;;;;;;5086623;28;20035;-73
2022/06/07 01:35:20;;;;;;;18.60;9.27;;;12.10;99.90;;;;;;5090003;28;20048;-73
2022/06/07 01:37:46;;;;;;;18.50;8.48;;;12.10;99.90;;;;;;5070226;28;20036;-72
2022/06/07 01:42:56;;;;;;;18.17;8.73;;;12.10;99.90;;;;;;5087564;28;20412;-72
2022/06/07 01:45:22;;;;;;;16.92;8.30;;;12.10;99.90;;;;;;5087100;28;20044;-73
2022/06/07 01:47:48;;;;;;;20.17;8.10;;;12.10;99.90;;;;;;5050975;28;20039;-72
2022/06/07 01:50:14;;;;;;;16.38;8.25;;;12.20;99.90;;;;;;5051685;28;20046;-72
2022/06/07 01:52:39;;;;;;;17.65;7.47;;;12.20;99.90;;;;;;5071433;28;20105;-73
2022/06/07 01:55:06;;;;;;;16.83;8.90;;;12.10;99.90;;;;;;5068673;28;20040;-72
2022/06/07 01:57:32;;;;;;;15.95;8.18;;;12.10;99.90;;;;;;5068757;28;20458;-73
2022/06/07 01:59:59;;;;;;;15.35;8.05;;;12.10;99.90;;;;;;5053651;28;20043;-71
2022/06/07 02:02:27;;;;;;;15.23;8.45;;;12.20;99.90;;;;;;5067043;28;20539;-71
2022/06/07 02:04:53;;;;;;;15.63;8.07;;;12.20;99.90;;;;;;5053148;28;20047;-72
2022/06/07 02:07:19;;;;;;;15.35;7.80;;;12.20;99.90;;;;;;5053593;28;20047;-72
2022/06/07 02:09:45;;;;;;;16.50;8.57;;;12.20;99.90;;;;;;5086972;28;20071;-72
2022/06/07 02:12:11;;;;;;;16.42;8.95;;;12.20;99.90;;;;;;5087040;28;20173;-71
2022/06/07 02:14:39;;;;;;;14.13;8.13;;;12.20;99.90;;;;;;5064671;28;20052;-72
2022/06/07 02:17:05;;;;;;;19.95;8.85;;;12.20;99.90;;;;;;5066300;28;20127;-71
2022/06/07 02:19:31;;;;;;;14.40;8.27;;;12.20;99.90;;;;;;5062834;28;20568;-71
2022/06/07 02:21:57;;;;;;;15.23;8.10;;;12.20;99.90;;;;;;5066112;28;20079;-72
2022/06/07 02:24:23;;;;;;;14.57;8.90;;;12.20;99.90;;;;;;5064979;28;20587;-72
2022/06/07 02:27:01;;;;;;;17.08;8.07;;;12.30;99.90;;;;;;5066181;28;20052;-72
2022/06/07 02:29:31;;;;;;;16.77;9.00;;;12.30;99.90;;;;;;5063883;28;20091;-72
2022/06/07 02:32:31;;;;;;;16.92;8.43;;;12.30;99.90;;;;;;5066057;28;20472;-72
2022/06/07 02:34:59;;;;;;;17.08;9.20;;;12.30;99.90;;;;;;5022625;28;20051;-72
2022/06/07 02:37:27;;;;;;;14.40;8.10;;;12.30;99.90;;;;;;5064749;28;20056;-72
2022/06/07 02:39:54;;;;;;;19.35;9.18;;;12.30;99.90;;;;;;5064251;28;20408;-72
2022/06/07 02:42:23;;;;;;;18.05;9.15;;;12.30;99.90;;;;;;5066515;28;20084;-72
2022/06/07 02:44:49;;;;;;;23.63;9.35;;;12.30;99.90;;;;;;5067876;28;20048;-72
2022/06/07 02:47:15;;;;;;;17.08;8.15;;;12.30;99.90;;;;;;5046437;28;20053;-72
2022/06/07 02:49:41;;;;;;;19.35;8.75;;;12.30;99.90;;;;;;5067186;28;20044;-73
2022/06/07 02:52:07;;;;;;;17.65;9.05;;;12.30;99.90;;;;;;5066600;28;20052;-72
2022/06/07 02:54:36;;;;;;;18.25;9.35;;;12.40;99.90;;;;;;5049153;28;20427;-72
2022/06/07 02:57:02;;;;;;;16.88;10.05;;;12.40;99.90;;;;;;5065890;28;20068;-72
2022/06/07 02:59:28;;;;;;;17.05;9.50;;;12.30;99.90;;;;;;5065624;28;20405;-73
2022/06/07 03:01:54;;;;;;;18.60;10.10;;;12.30;99.90;;;;;;5064877;28;20036;-71
2022/06/07 03:04:19;;;;;;;17.77;9.80;;;12.30;99.90;;;;;;5064312;28;20074;-72
2022/06/07 03:06:45;;;;;;;18.85;10.52;;;12.30;99.90;;;;;;5065607;28;20048;-72
2022/06/07 03:09:11;;;;;;;16.63;10.15;;;12.30;99.90;;;;;;5067002;28;20055;-72
2022/06/07 03:11:37;;;;;;;15.45;9.02;;;12.30;99.90;;;;;;5067029;28;20048;-72
2022/06/07 03:14:03;;;;;;;22.45;10.25;;;12.30;99.90;;;;;;5063679;28;20050;-71
2022/06/07 03:16:29;;;;;;;18.27;9.00;;;12.40;99.90;;;;;;5063380;28;21267;-72
2022/06/07 03:18:55;;;;;;;16.65;9.45;;;12.40;99.90;;;;;;5062699;28;20448;-71
2022/06/07 03:21:20;;;;;;;17.48;9.18;;;12.40;99.90;;;;;;5064385;28;20049;-71
2022/06/07 03:23:46;;;;;;;16.08;9.40;;;12.40;99.90;;;;;;5048580;28;20764;-73
2022/06/07 03:26:13;;;;;;;13.48;9.18;;;12.40;99.90;;;;;;5065044;28;20087;-71
2022/06/07 03:28:39;;;;;;;16.65;8.98;;;12.40;99.90;;;;;;5063181;28;20098;-71
2022/06/07 03:31:12;;;;;;;18.33;9.18;;;12.40;99.90;;;;;;5064737;28;20045;-72
2022/06/07 03:33:39;;;;;;;16.00;8.60;;;12.40;99.90;;;;;;5063248;28;20055;-72
2022/06/07 03:36:08;;;;;;;18.83;9.77;;;12.30;99.90;;;;;;5066196;28;20051;-71
2022/06/07 03:38:34;;;;;;;16.15;9.40;;;12.40;99.90;;;;;;5065009;28;20066;-72
2022/06/07 03:41:00;;;;;;;17.77;8.75;;;12.30;99.90;;;;;;5065555;28;20052;-71
2022/06/07 03:43:26;;;;;;;16.25;9.20;;;12.30;99.90;;;;;;5063812;28;20044;-70
2022/06/07 03:45:52;;;;;;;16.85;9.60;;;12.30;99.90;;;;;;5043836;28;20378;-71
2022/06/07 03:48:18;;;;;;;15.93;9.48;;;12.20;99.90;;;;;;5068275;28;20105;-72
2022/06/07 03:50:43;;;;;;;18.92;9.32;;;12.20;99.90;;;;;;5066176;28;20045;-71
2022/06/07 03:53:11;;;;;;;19.23;9.13;;;12.20;99.90;;;;;;5066997;28;20103;-72
2022/06/07 03:55:42;;;;;;;19.80;9.40;;;12.20;99.90;;;;;;5065962;28;20102;-72
2022/06/07 03:58:09;;;;;;;15.95;8.48;;;12.10;99.90;;;;;;5064697;28;20083;-72
2022/06/07 04:00:35;;;;;;;18.20;8.95;;;12.10;99.90;;;;;;5067026;28;20040;-71
2022/06/07 04:03:01;;;;;;;15.27;8.23;;;12.00;99.90;;;;;;5069928;28;20044;-72
2022/06/07 04:05:27;;;;;;;18.05;8.68;;;12.00;99.90;;;;;;5065591;28;20047;-72
2022/06/07 04:08:11;;;;;;;19.85;8.70;;;12.00;99.90;;;;;;5062474;28;20136;-72
2022/06/07 04:10:44;;;;;;;15.43;8.20;;;11.90;99.90;;;;;;5064774;28;20368;-72
2022/06/07 04:13:11;;;;;;;13.30;7.82;;;11.80;99.90;;;;;;5049771;28;20631;-71
2022/06/07 04:15:36;;;;;;;18.00;7.45;;;11.80;99.90;;;;;;5060958;28;20048;-73
2022/06/07 04:18:02;;;;;;;15.85;7.43;;;11.70;99.90;;;;;;5049705;28;20041;-71
2022/06/07 04:20:28;;;;;;;17.50;8.25;;;11.70;99.90;;;;;;5047299;28;20045;-72
2022/06/07 04:22:53;;;;;;;18.30;8.00;;;11.80;99.90;;;;;;5062373;28;20040;-72
2022/06/07 04:25:19;;;;;;;17.35;7.70;;;11.70;99.90;;;;;;5061954;28;20052;-71
2022/06/07 04:27:45;;;;;;;12.77;7.20;;;11.70;99.90;;;;;;5062686;28;20051;-71
2022/06/07 04:30:11;;;;;;;11.95;6.97;;;11.90;99.90;;;;;;5063318;28;20159;-71
2022/06/07 04:32:39;;;;;;;14.50;7.80;;;11.70;99.90;;;;;;5058905;28;20052;-71
2022/06/07 04:35:06;;;;;;;14.95;7.30;;;11.70;99.90;;;;;;5043450;28;20420;-72
2022/06/07 04:37:31;;;;;;;19.83;7.72;;;11.70;99.90;;;;;;5060977;28;20058;-71
2022/06/07 04:39:57;;;;;;;20.77;7.75;;;11.70;99.90;;;;;;5061599;28;20036;-72
2022/06/07 04:42:23;;;;;;;17.88;7.57;;;11.70;99.90;;;;;;5064311;28;20044;-71
2022/06/07 04:44:51;;;;;;;18.38;8.73;;;11.70;99.90;;;;;;5060754;28;20045;-72
2022/06/07 04:47:17;;;;;;;20.10;7.30;;;11.80;99.90;;;;;;5040792;28;20076;-72
2022/06/07 04:49:43;;;;;;;20.17;7.97;;;11.80;99.90;;;;;;5063513;28;20087;-73
2022/06/07 04:52:08;;;;;;;17.88;7.20;;;11.80;99.90;;;;;;5057021;28;20044;-72
2022/06/07 04:54:34;;;;;;;17.52;7.03;;;11.80;99.90;;;;;;5060266;28;20162;-72
2022/06/07 04:57:00;;;;;;;19.38;7.97;;;11.80;99.90;;;;;;5041938;28;20249;-71
2022/06/07 04:59:26;;;;;;;15.05;7.35;;;11.80;99.90;;;;;;5060454;28;20049;-71
2022/06/07 05:01:52;;;;;;;20.77;8.48;;;11.80;99.90;;;;;;5045508;28;20446;-71
2022/06/07 05:04:17;;;;;;;16.35;7.57;;;11.90;99.90;;;;;;5062340;28;20659;-72
2022/06/07 05:06:43;;;;;;;16.15;8.98;;;11.90;99.90;;;;;;5061390;28;20051;-71
2022/06/07 05:09:17;;;;;;;17.92;7.38;;;11.90;99.90;;;;;;5060536;28;20049;-71
2022/06/07 05:11:46;;;;;;;20.80;8.32;;;11.90;99.90;;;;;;5061741;28;20068;-71
2022/06/07 05:14:12;;;;;;;15.18;7.10;;;11.90;99.90;;;;;;5076792;28;20194;-71
2022/06/07 05:16:39;;;;;;;14.48;7.20;;;11.90;99.90;;;;;;5047995;28;20138;-72
2022/06/07 05:19:06;;;;;;;15.38;7.38;;;11.90;99.90;;;;;;5074165;28;20374;-72
2022/06/07 05:21:32;;;;;;;12.50;6.38;;;12.00;99.90;;;;;;5066395;28;20055;-71
2022/06/07 05:23:57;;;;;;;16.58;7.20;;;12.00;99.90;;;;;;5064587;28;20040;-71
2022/06/07 05:26:48;;;;;;;12.38;6.50;;;12.00;99.90;;;;;;5066861;28;20048;-71
2022/06/07 05:29:20;;;;;;;13.07;6.40;;;12.00;99.90;;;;;;5084666;28;20047;-71
2022/06/07 05:31:46;;;;;;;14.73;6.25;;;12.00;99.90;;;;;;5066106;28;20052;-71
2022/06/07 05:34:12;;;;;;;14.52;5.72;;;12.00;99.90;;;;;;5067245;28;20051;-71
2022/06/07 05:36:38;;;;;;;12.23;4.93;;;12.10;99.90;;;;;;5070466;28;20369;-72
2022/06/07 05:39:04;;;;;;;13.35;5.28;;;12.10;99.90;;;;;;5069961;28;20036;-72
2022/06/07 05:41:32;;;;;;;11.13;5.03;;;12.10;99.90;;;;;;5069318;28;20141;-72
2022/06/07 05:43:58;;;;;;;13.60;4.18;;;12.10;99.90;;;;;;5086835;28;20047;-72
2022/06/07 05:46:24;;;;;;;12.18;4.93;;;12.10;99.90;;;;;;5071079;28;20052;-72
2022/06/07 05:48:50;;;;;;;13.40;4.78;;;12.00;99.90;;;;;;5070681;28;20036;-72
2022/06/07 05:51:16;;;;;;;12.70;4.25;;;12.00;99.90;;;;;;5070045;28;20122;-72
2022/06/07 05:53:42;;;;;;;15.20;4.55;;;12.00;99.90;;;;;;5068443;28;21369;-72
2022/06/07 05:56:11;;;;;;;11.00;4.28;;;11.90;99.90;;;;;;5069376;28;20036;-72
2022/06/07 05:58:37;;;;;;;13.30;4.45;;;11.90;99.90;;;;;;5067445;28;20058;-71
2022/06/07 06:01:04;;;;;;;9.10;4.00;;;11.80;99.90;;;;;;5066906;28;20052;-72
2022/06/07 06:03:30;;;;;;;11.30;4.40;;;11.80;99.90;;;;;;5064224;28;20115;-72
2022/06/07 06:05:57;;;;;;;14.13;4.53;;;11.70;99.90;;;;;;5063175;28;20058;-73
2022/06/07 06:11:15;;;;;;;10.63;4.43;;;11.70;99.90;;;;;;5069162;28;20396;-73
2022/06/07 06:13:41;;;;;;;12.88;4.97;;;11.60;99.90;;;;;;5071174;28;20064;-73
2022/06/07 06:16:11;;;;;;;11.25;4.60;;;11.60;99.90;;;;;;5088443;28;20481;-72
2022/06/07 06:18:38;;;;;;;12.20;4.55;;;11.60;99.90;;;;;;5068361;28;20044;-73
2022/06/07 06:21:08;;;;;;;12.57;4.57;;;11.60;99.90;;;;;;5069068;28;20072;-73
2022/06/07 06:23:34;;;;;;;11.70;4.47;;;11.70;99.90;;;;;;5086941;28;20024;-74
2022/06/07 06:26:00;;;;;;;15.10;4.47;;;11.60;99.90;;;;;;5067685;28;20500;-72
2022/06/07 06:28:26;;;;;;;9.43;4.30;;;11.60;99.90;;;;;;5069774;28;20492;-72
2022/06/07 06:30:53;;;;;;;8.88;3.22;;;11.60;99.90;;;;;;5068060;28;20043;-73
2022/06/07 06:33:19;;;;;;;8.70;3.08;;;11.70;99.90;;;;;;5069787;28;20036;-72
2022/06/07 06:35:53;;;;;;;7.53;3.22;;;11.60;99.90;;;;;;5087108;28;20028;-72
2022/06/07 06:38:21;;;;;;;10.43;3.45;;;11.70;99.90;;;;;;5088363;28;20408;-72
2022/06/07 06:40:47;;;;;;;12.02;3.75;;;11.80;99.90;;;;;;5068603;28;20105;-72
2022/06/07 06:43:14;;;;;;;11.38;3.75;;;11.80;99.90;;;;;;5071033;28;20040;-72
2022/06/07 06:45:41;;;;;;;10.57;4.10;;;11.90;99.90;;;;;;5063727;28;20353;-72
2022/06/07 06:48:08;;;;;;;13.50;3.70;;;11.90;99.90;;;;;;5067618;28;20032;-73
2022/06/07 06:50:35;;;;;;;9.13;2.55;;;12.00;99.90;;;;;;5088986;28;20442;-73
2022/06/07 06:53:01;;;;;;;10.73;2.40;;;12.00;99.90;;;;;;5047903;28;20053;-73
2022/06/07 06:55:27;;;;;;;8.68;2.63;;;12.10;99.90;;;;;;5080515;28;20112;-74
2022/06/07 06:57:53;;;;;;;11.23;2.42;;;12.10;99.90;;;;;;5082594;28;20441;-73
2022/06/07 07:00:18;;;;;;;8.65;2.55;;;12.20;99.90;;;;;;5070702;28;20105;-73
2022/06/07 07:02:44;;;;;;;18.73;3.30;;;12.20;99.90;;;;;;5068830;28;20396;-74
2022/06/07 07:05:12;;;;;;;11.82;2.70;;;12.20;99.90;;;;;;5052421;28;20066;-72
2022/06/07 07:07:39;;;;;;;9.32;2.45;;;12.20;99.90;;;;;;5048750;28;20044;-73
2022/06/07 07:10:06;;;;;;;11.75;3.10;;;12.30;99.90;;;;;;5081403;28;20054;-72
2022/06/07 07:12:34;;;;;;;11.70;2.33;;;12.30;99.90;;;;;;5069207;28;20040;-72
2022/06/07 07:15:00;;;;;;;11.73;2.25;;;12.40;99.90;;;;;;5068646;28;20133;-73
2022/06/07 07:17:26;;;;;;;12.85;2.35;;;12.50;99.90;;;;;;5049915;28;20143;-73
2022/06/07 07:19:52;;;;;;;12.07;2.55;;;12.50;99.90;;;;;;5065925;28;20068;-72
2022/06/07 07:22:18;;;;;;;13.85;2.47;;;12.60;99.90;;;;;;5066095;28;20144;-74
2022/06/07 07:24:44;;;;;;;13.77;2.80;;;12.70;99.90;;;;;;5062017;28;20674;-73
2022/06/07 07:27:10;;;;;;;11.80;2.47;;;12.70;99.90;;;;;;5064363;28;20058;-72
2022/06/07 07:29:37;;;;;;;17.98;3.40;;;12.90;99.90;;;;;;5085707;28;20170;-73
2022/06/07 07:32:07;;;;;;;10.98;2.40;;;13.00;99.90;;;;;;5050213;28;20059;-72
2022/06/07 07:34:33;;;;;;;13.45;2.47;;;13.20;99.90;;;;;;5078527;28;20411;-73
2022/06/07 07:36:59;;;;;;;16.65;2.78;;;13.30;99.90;;;;;;5084630;28;20044;-72
2022/06/07 07:39:25;;;;;;;13.05;2.10;;;13.30;99.90;;;;;;5074264;28;20052;-72
2022/06/07 07:41:53;;;;;;;11.18;2.38;;;13.30;99.90;;;;;;5077079;28;21882;-72
2022/06/07 07:44:21;;;;;;;13.60;2.75;;;13.20;99.90;;;;;;5061956;28;20127;-74
2022/06/07 07:46:48;;;;;;;19.15;3.38;;;13.20;99.90;;;;;;5065968;28;20381;-73
2022/06/07 07:49:15;;;;;;;9.30;2.38;;;13.10;99.90;;;;;;5082162;28;20408;-73
2022/06/07 07:51:44;;;;;;;16.70;3.17;;;13.00;99.90;;;;;;5083347;28;20124;-72
2022/06/07 07:54:13;;;;;;;12.70;2.33;;;13.00;99.90;;;;;;5084851;28;20036;-73
2022/06/07 07:56:38;;;;;;;12.20;2.70;;;13.00;99.90;;;;;;5066645;28;20035;-73
2022/06/07 07:59:06;;;;;;;13.15;2.78;;;12.90;99.90;;;;;;5085474;28;20085;-72
2022/06/07 08:01:36;;;;;;;12.07;2.55;;;12.90;99.90;;;;;;5044884;28;20063;-72
2022/06/07 08:04:03;;;;;;;16.33;2.80;;;12.80;99.90;;;;;;5051045;28;20072;-71
2022/06/07 08:06:31;;;;;;;14.27;2.78;;;12.90;99.90;;;;;;5047245;28;20079;-71
2022/06/07 08:08:58;;;;;;;17.15;3.20;;;13.00;99.90;;;;;;5065200;28;20052;-73
2022/06/07 08:11:29;;;;;;;12.68;3.03;;;13.00;99.90;;;;;;5051582;28;20078;-72
2022/06/07 08:13:55;;;;;;;18.85;2.88;;;13.10;99.90;;;;;;5066989;28;20039;-72
2022/06/07 08:16:23;;;;;;;14.02;2.58;;;13.20;99.90;;;;;;5031224;28;20421;-72
2022/06/07 08:18:49;;;;;;;13.98;2.85;;;13.20;99.90;;;;;;5070366;28;20458;-72
2022/06/07 08:21:20;;;;;;;12.45;2.80;;;13.40;99.90;;;;;;5067742;28;20048;-72
2022/06/07 08:23:47;;;;;;;15.32;2.65;;;13.40;99.90;;;;;;5063246;28;20052;-72
2022/06/07 08:26:16;;;;;;;13.52;2.55;;;13.60;99.90;;;;;;5032759;28;20123;-72
2022/06/07 08:28:42;;;;;;;14.15;2.30;;;13.60;99.90;;;;;;5049213;28;20507;-72
2022/06/07 08:31:19;;;;;;;13.82;2.65;;;13.70;99.90;;;;;;5033594;28;20059;-71
2022/06/07 08:39:14;;;;;;;12.07;2.10;;;14.10;99.90;;;;;;5051823;28;20494;-71
2022/06/07 08:41:45;;;;;;;13.13;1.85;;;14.30;99.90;;;;;;5054581;28;20482;-71
2022/06/07 08:44:19;;;;;;;14.60;2.22;;;14.40;99.90;;;;;;5067554;28;20458;-71
2022/06/07 08:46:45;;;;;;;12.95;2.30;;;14.40;99.90;;;;;;5052017;28;20707;-72
2022/06/07 08:49:12;;;;;;;11.40;2.10;;;14.40;99.90;;;;;;5051187;28;20103;-72
2022/06/07 08:52:11;;;;;;;13.27;2.70;;;14.40;99.90;;;;;;5068604;28;20506;-72
2022/06/07 08:54:39;;;;;;;14.73;2.47;;;14.30;99.90;;;;;;5036784;28;20472;-72
2022/06/07 08:57:27;;;;;;;12.82;2.30;;;14.40;99.90;;;;;;5054222;28;20438;-72
2022/06/07 08:59:56;;;;;;;11.40;2.53;;;14.70;99.90;;;;;;5087816;28;20044;-71
2022/06/07 09:03:00;;;;;;;16.30;3.67;;;14.90;99.90;;;;;;5075424;28;20039;-71
2022/06/07 09:05:26;;;;;;;15.35;2.60;;;15.20;99.90;;;;;;5059698;28;21021;-71
2022/06/07 09:07:52;;;;;;;10.70;1.85;;;15.30;99.90;;;;;;5052530;28;20043;-72
2022/06/07 09:13:07;;;;;;;10.70;2.20;;;15.30;99.90;;;;;;5056042;28;20052;-71
2022/06/07 09:15:36;;;;;;;13.07;2.38;;;15.20;99.90;;;;;;5041994;28;20056;-73
2022/06/07 09:18:05;;;;;;;12.80;1.85;;;15.10;99.90;;;;;;5024150;28;20124;-74
2022/06/07 09:20:37;;;;;;;10.45;2.70;;;15.00;99.90;;;;;;5038835;28;20106;-71
2022/06/07 09:23:28;;;;;;;8.43;2.05;;;15.00;99.90;;;;;;5037445;28;20102;-71
2022/06/07 09:25:57;;;;;;;10.97;1.87;;;14.90;99.90;;;;;;5040193;28;20665;-73
2022/06/07 09:28:31;;;;;;;11.98;2.17;;;14.70;99.90;;;;;;5018100;28;20045;-71
2022/06/07 09:31:00;;;;;;;15.57;2.25;;;14.60;99.90;;;;;;5037757;28;20507;-72
2022/06/07 09:33:49;;;;;;;9.23;2.03;;;14.50;99.90;;;;;;5028763;28;20128;-72
2022/06/07 09:36:25;;;;;;;8.57;2.00;;;14.30;99.90;;;;;;5046560;28;20045;-72
2022/06/07 09:38:56;;;;;;;11.98;1.98;;;14.30;99.90;;;;;;5067578;28;20119;-72
2022/06/07 09:41:40;;;;;;;9.40;1.92;;;14.30;99.90;;;;;;5049277;28;20093;-72
2022/06/07 09:44:22;;;;;;;13.77;2.35;;;14.30;99.90;;;;;;5067050;28;20044;-72
2022/06/07 09:47:08;;;;;;;11.02;1.80;;;14.30;99.90;;;;;;5068860;28;20040;-73
2022/06/07 09:49:49;;;;;;;9.68;1.92;;;14.30;99.90;;;;;;5062298;28;20418;-72
2022/06/07 09:52:24;;;;;;;7.90;1.70;;;14.40;99.90;;;;;;5067927;28;20527;-72
2022/06/07 09:55:04;;;;;;;11.40;1.92;;;14.40;99.90;;;;;;5050516;28;20120;-72
2022/06/07 09:57:33;;;;;;;12.93;2.10;;;14.50;99.90;;;;;;5068034;28;20059;-72
2022/06/07 10:00:20;;;;;;;9.20;2.10;;;14.50;99.90;;;;;;5063677;28;20374;-73
2022/06/07 10:03:01;;;;;;;11.73;1.80;;;14.40;99.90;;;;;;5048495;28;20093;-73
2022/06/07 10:05:33;;;;;;;10.18;1.75;;;14.40;99.90;;;;;;5038015;28;20528;-72
2022/06/07 10:08:20;;;;;;;10.70;1.58;;;14.50;99.90;;;;;;5038249;28;20067;-73
2022/06/07 10:11:18;;;;;;;10.57;1.70;;;14.60;99.90;;;;;;5059449;28;20472;-73
2022/06/07 10:14:10;;;;;;;11.32;1.90;;;14.80;99.90;;;;;;5050819;28;20416;-73
2022/06/07 10:16:54;;;;;;;13.52;2.50;;;15.00;99.90;;;;;;5078689;28;20408;-72
2022/06/07 10:19:48;;;;;;;12.30;1.58;;;15.10;99.90;;;;;;5057837;28;20075;-72
2022/06/07 10:22:53;;;;;;;11.43;1.70;;;15.20;99.90;;;;;;5042897;28;20462;-72
2022/06/07 10:25:39;;;;;;;9.02;1.20;;;15.10;99.90;;;;;;5052206;28;20044;-73
2022/06/07 10:28:13;;;;;;;9.55;1.65;;;15.30;99.90;;;;;;5083746;28;20036;-72
2022/06/07 10:30:54;;;;;;;8.20;1.80;;;15.40;99.90;;;;;;5065384;28;20048;-73
2022/06/07 10:33:42;;;;;;;9.25;1.30;;;15.40;99.90;;;;;;5063293;28;20043;-73
2022/06/07 10:36:31;;;;;;;8.18;1.20;;;15.30;99.90;;;;;;5063767;28;20047;-73
2022/06/07 10:39:09;;;;;;;12.13;1.85;;;15.10;99.90;;;;;;5056886;28;20056;-73
2022/06/07 10:41:54;;;;;;;7.82;1.60;;;15.00;99.90;;;;;;5066080;28;20094;-73
2022/06/07 10:44:34;;;;;;;9.75;1.90;;;14.80;99.90;;;;;;5065848;28;20039;-73
2022/06/07 10:47:17;;;;;;;6.47;1.70;;;14.70;99.90;;;;;;5081568;28;20171;-73
2022/06/07 10:50:08;;;;;;;10.55;1.77;;;14.60;99.90;;;;;;5062669;28;20048;-72
2022/06/07 10:52:51;;;;;;;8.82;1.75;;;14.50;99.90;;;;;;5061785;28;20075;-72
2022/06/07 10:55:30;;;;;;;7.88;1.50;;;14.50;99.90;;;;;;5046236;28;20044;-73
2022/06/07 10:58:27;;;;;;;9.38;1.70;;;14.60;99.90;;;;;;5060541;28;20189;-73
2022/06/07 11:01:15;;;;;;;9.93;1.48;;;14.60;99.90;;;;;;5043587;28;20036;-73
2022/06/07 11:04:10;;;;;;;11.77;2.13;;;14.80;99.90;;;;;;5047821;28;20082;-73
2022/06/07 11:09:58;;;;;;;9.82;1.92;;;15.40;99.90;;;;;;5077897;28;20172;-73
2022/06/07 11:12:39;;;;;;;7.53;1.50;;;15.70;99.90;;;;;;5064504;28;20051;-72
2022/06/07 11:15:15;;;;;;;8.38;1.70;;;15.80;99.90;;;;;;5037706;28;20439;-72
2022/06/07 11:17:52;;;;;;;9.30;1.40;;;15.90;99.90;;;;;;5027032;28;20490;-73
2022/06/07 11:20:22;;;;;;;8.60;1.67;;;15.90;99.90;;;;;;5045576;28;20443;-72
2022/06/07 11:23:14;;;;;;;5.07;1.43;;;15.90;99.90;;;;;;5046863;28;20033;-72
2022/06/07 11:25:43;;;;;;;10.80;1.60;;;16.00;99.90;;;;;;5045420;28;20040;-72
2022/06/07 11:28:23;;;;;;;11.35;2.08;;;16.10;99.90;;;;;;5059373;28;20051;-73
2022/06/07 11:30:53;;;;;;;7.07;1.87;;;16.30;99.90;;;;;;5065099;28;20039;-72
2022/06/07 11:33:42;;;;;;;6.15;1.48;;;16.40;99.90;;;;;;5039904;28;20056;-73
2022/06/07 11:36:08;;;;;;;10.50;1.98;;;16.60;99.90;;;;;;5045570;28;20448;-72
2022/06/07 11:38:56;;;;;;;6.47;1.40;;;16.90;99.90;;;;;;5050254;28;20044;-73
2022/06/07 11:41:37;;;;;;;6.05;1.45;;;17.20;99.90;;;;;;5044124;28;20128;-72
2022/06/07 11:44:11;;;;;;;7.60;1.58;;;17.50;99.90;;;;;;5054703;28;20071;-73
2022/06/07 11:46:41;;;;;;;10.13;1.48;;;17.70;99.90;;;;;;5082322;28;20109;-73
2022/06/07 11:49:24;;;;;;;7.50;1.58;;;17.80;99.90;;;;;;5030734;28;20045;-72
2022/06/07 11:52:13;;;;;;;10.30;1.45;;;18.00;99.90;;;;;;5061088;28;20488;-73
2022/06/07 11:54:45;;;;;;;8.95;2.17;;;18.30;99.90;;;;;;5034499;28;20428;-72
2022/06/07 11:57:40;;;;;;;8.15;1.55;;;18.50;99.90;;;;;;5045774;28;20432;-72
2022/06/07 12:00:18;;;;;;;11.60;1.98;;;18.60;99.90;;;;;;5046220;28;20432;-72
2022/06/07 12:02:56;;;;;;;11.38;1.90;;;18.40;99.90;;;;;;5060707;28;20051;-72
2022/06/07 12:05:37;;;;;;;7.85;1.52;;;18.40;99.90;;;;;;5023147;28;20041;-72
2022/06/07 12:08:18;;;;;;;8.82;1.70;;;18.30;99.90;;;;;;5065923;28;20102;-73
2022/06/07 12:11:05;;;;;;;6.80;1.10;;;18.40;99.90;;;;;;5041119;28;20101;-73
2022/06/07 12:13:52;;;;;;;7.55;1.60;;;18.60;99.90;;;;;;5053890;28;20048;-73
2022/06/07 12:16:24;;;;;;;11.82;1.88;;;18.90;99.90;;;;;;5047604;28;20109;-72
2022/06/07 12:18:55;;;;;;;9.98;1.95;;;18.80;99.90;;;;;;5061844;28;20461;-72
2022/06/07 12:21:21;;;;;;;9.93;1.77;;;18.50;99.90;;;;;;5083654;28;20055;-71
2022/06/07 12:24:19;;;;;;;11.13;2.25;;;18.30;99.90;;;;;;5066428;28;20060;-72
2022/06/07 12:26:46;;;;;;;9.98;1.70;;;18.10;99.90;;;;;;5068178;28;20032;-72
2022/06/07 12:29:19;;;;;;;12.48;2.15;;;18.00;99.90;;;;;;5083239;28;20404;-72
2022/06/07 12:31:55;;;;;;;15.13;2.55;;;17.90;99.90;;;;;;5050644;28;20439;-71
2022/06/07 12:34:34;;;;;;;10.52;2.08;;;17.80;99.90;;;;;;5090337;28;20044;-72
2022/06/07 12:37:09;;;;;;;10.80;2.15;;;17.60;99.90;;;;;;5066810;28;20047;-72
2022/06/07 12:39:57;;;;;;;8.23;1.95;;;17.50;99.90;;;;;;5072091;28;20056;-72
2022/06/07 12:42:29;;;;;;;11.20;2.35;;;17.40;99.90;;;;;;5070576;28;20068;-72
2022/06/07 12:44:58;;;;;;;8.27;2.28;;;17.30;99.90;;;;;;5049078;28;20044;-72
2022/06/07 12:47:37;;;;;;;10.10;1.80;;;17.10;99.90;;;;;;5048286;28;20047;-72
2022/06/07 12:50:17;;;;;;;6.60;1.30;;;17.00;99.90;;;;;;5068642;28;20131;-72
2022/06/07 12:52:50;;;;;;;7.38;1.77;;;17.00;99.90;;;;;;5067863;28;20127;-73
2022/06/07 12:55:37;;;;;;;10.55;1.58;;;17.00;99.90;;;;;;5068409;28;20055;-72
2022/06/07 12:58:19;;;;;;;10.98;1.75;;;17.10;99.90;;;;;;5069764;28;20735;-73
2022/06/07 13:00:47;;;;;;;7.80;1.50;;;17.30;99.90;;;;;;5071359;28;20032;-72
2022/06/07 13:03:37;;;;;;;7.72;1.70;;;17.60;99.90;;;;;;5058974;28;20048;-72
2022/06/07 13:06:19;;;;;;;7.10;1.52;;;18.00;99.90;;;;;;5052876;28;20044;-72
2022/06/07 13:09:01;;;;;;;10.10;1.70;;;18.10;99.90;;;;;;5086731;28;20544;-72
2022/06/07 13:11:30;;;;;;;10.48;1.92;;;18.00;99.90;;;;;;5052887;28;20043;-73
2022/06/07 13:13:56;;;;;;;10.55;1.92;;;17.90;99.90;;;;;;5087785;28;20047;-72
2022/06/07 13:16:32;;;;;;;9.60;1.92;;;18.10;99.90;;;;;;5068250;28;20051;-71
2022/06/07 13:19:18;;;;;;;8.68;1.33;;;18.30;99.90;;;;;;5068378;28;20531;-72